createdAt,value
2016-03-22T00:00:55.501Z,1005.47
2016-03-22T00:01:55.489Z,1005.46
2016-03-22T00:02:55.491Z,1005.5
2016-03-22T00:03:55.510Z,1005.45
2016-03-22T00:04:55.465Z,1005.48
2016-03-22T00:05:55.467Z,1005.45
2016-03-22T00:06:55.471Z,1005.49
2016-03-22T00:07:55.458Z,1005.45
2016-03-22T00:08:55.444Z,1005.45
2016-03-22T00:09:55.447Z,1005.5
2016-03-22T00:10:55.435Z,1005.47
2016-03-22T00:11:55.422Z,1005.5
2016-03-22T00:12:55.425Z,1005.55
2016-03-22T00:13:55.411Z,1005.54
2016-03-22T00:14:55.413Z,1005.5
2016-03-22T00:15:55.402Z,1005.48
2016-03-22T00:16:55.404Z,1005.51
2016-03-22T00:17:55.390Z,1005.46
2016-03-22T00:18:55.378Z,1005.46
2016-03-22T00:19:55.380Z,1005.49
2016-03-22T00:20:55.368Z,1005.41
2016-03-22T00:21:55.371Z,1005.45
2016-03-22T00:22:55.357Z,1005.44
2016-03-22T00:23:55.345Z,1005.44
2016-03-22T00:24:55.348Z,1005.44
2016-03-22T00:25:55.334Z,1005.38
2016-03-22T00:26:55.337Z,1005.3
2016-03-22T00:27:55.324Z,1005.35
2016-03-22T00:28:55.326Z,1005.32
2016-03-22T00:29:55.314Z,1005.31
2016-03-22T00:30:55.300Z,1005.28
2016-03-22T00:31:55.303Z,1005.28
2016-03-22T00:32:55.289Z,1005.27
2016-03-22T00:33:55.683Z,1005.23
2016-03-22T00:34:55.280Z,1005.24
2016-03-22T00:35:56.579Z,1005.24
2016-03-22T00:36:55.254Z,1005.24
2016-03-22T00:37:55.256Z,1005.23
2016-03-22T00:38:55.260Z,1005.23
2016-03-22T00:39:55.246Z,1005.22
2016-03-22T00:40:55.405Z,1005.24
2016-03-22T00:41:55.235Z,1005.26
2016-03-22T00:42:55.223Z,1005.21
2016-03-22T00:43:55.210Z,1005.18
2016-03-22T00:44:55.212Z,1005.22
2016-03-22T00:45:55.199Z,1005.16
2016-03-22T00:46:55.187Z,1005.18
2016-03-22T00:47:55.190Z,1005.21
2016-03-22T00:48:55.192Z,1005.17
2016-03-22T00:49:55.179Z,1005.19
2016-03-22T00:50:55.167Z,1005.19
2016-03-22T00:51:55.169Z,1005.19
2016-03-22T00:52:56.406Z,1005.17
2016-03-22T00:53:56.002Z,1005.16
2016-03-22T00:54:55.146Z,1005.18
2016-03-22T00:55:56.195Z,1005.15
2016-03-22T00:56:55.136Z,1005.18
2016-03-22T00:57:55.122Z,1005.11
2016-03-22T00:58:55.109Z,1005.08
2016-03-22T00:59:55.111Z,1005.12
2016-03-22T01:00:55.100Z,1005.13
2016-03-22T01:02:55.088Z,1005.12
2016-03-22T01:03:55.545Z,1005.11
2016-03-22T01:04:55.438Z,1005.13
2016-03-22T01:05:55.066Z,1005.08
2016-03-22T01:06:55.413Z,1005.1
2016-03-22T01:07:55.055Z,1005.06
2016-03-22T01:08:55.058Z,1005.04
2016-03-22T01:09:55.046Z,1005.05
2016-03-22T01:10:55.032Z,1005.07
2016-03-22T01:11:55.035Z,1005.08
2016-03-22T01:12:55.022Z,1005.05
2016-03-22T01:13:55.024Z,1005.01
2016-03-22T01:14:55.013Z,1005.01
2016-03-22T01:15:54.999Z,1005.02
2016-03-22T01:16:55.002Z,1004.99
2016-03-22T01:17:54.989Z,1005.02
2016-03-22T01:18:54.992Z,1005.04
2016-03-22T01:19:54.978Z,1005.01
2016-03-22T01:20:54.981Z,1004.99
2016-03-22T01:21:54.968Z,1004.97
2016-03-22T01:22:54.955Z,1004.99
2016-03-22T01:23:54.959Z,1004.99
2016-03-22T01:24:54.945Z,1004.99
2016-03-22T01:25:54.947Z,1004.95
2016-03-22T01:26:54.935Z,1004.99
2016-03-22T01:27:54.937Z,1004.98
2016-03-22T01:28:54.925Z,1004.96
2016-03-22T01:29:54.911Z,1004.99
2016-03-22T01:30:54.914Z,1004.95
2016-03-22T01:31:54.902Z,1004.92
2016-03-22T01:32:54.889Z,1004.92
2016-03-22T01:33:54.891Z,1004.9
2016-03-22T01:34:54.878Z,1004.91
2016-03-22T01:35:54.866Z,1004.9
2016-03-22T01:36:54.868Z,1004.91
2016-03-22T01:37:54.855Z,1004.92
2016-03-22T01:38:54.841Z,1004.97
2016-03-22T01:39:54.845Z,1004.93
2016-03-22T01:40:54.847Z,1004.97
2016-03-22T01:41:54.835Z,1004.95
2016-03-22T01:42:54.821Z,1004.94
2016-03-22T01:43:54.824Z,1004.94
2016-03-22T01:44:54.812Z,1004.84
2016-03-22T01:45:54.798Z,1004.95
2016-03-22T01:46:54.801Z,1004.87
2016-03-22T01:47:54.787Z,1004.9
2016-03-22T01:48:54.791Z,1004.87
2016-03-22T01:49:54.778Z,1004.84
2016-03-22T01:50:54.765Z,1004.88
2016-03-22T01:51:54.768Z,1004.9
2016-03-22T01:52:55.989Z,1004.83
2016-03-22T01:53:55.336Z,1004.84
2016-03-22T01:54:54.745Z,1004.86
2016-03-22T01:55:54.731Z,1004.85
2016-03-22T01:56:54.734Z,1004.86
2016-03-22T01:57:54.718Z,1004.8
2016-03-22T01:58:54.957Z,1004.8
2016-03-22T01:59:54.681Z,1004.83
2016-03-22T02:00:54.654Z,1004.79
2016-03-22T02:01:54.643Z,1004.78
2016-03-22T02:02:54.854Z,1004.78
2016-03-22T02:03:54.617Z,1004.8
2016-03-22T02:04:54.599Z,1004.74
2016-03-22T02:05:54.597Z,1004.73
2016-03-22T02:06:54.578Z,1004.75
2016-03-22T02:07:54.577Z,1004.71
2016-03-22T02:08:54.564Z,1004.75
2016-03-22T02:09:54.548Z,1004.79
2016-03-22T02:10:54.549Z,1004.71
2016-03-22T02:11:54.629Z,1004.72
2016-03-22T02:12:54.521Z,1004.76
2016-03-22T02:13:54.522Z,1004.76
2016-03-22T02:14:54.508Z,1004.73
2016-03-22T02:15:54.511Z,1004.76
2016-03-22T02:16:54.497Z,1004.78
2016-03-22T02:17:54.734Z,1004.76
2016-03-22T02:18:54.487Z,1004.72
2016-03-22T02:19:54.473Z,1004.71
2016-03-22T02:20:54.476Z,1004.74
2016-03-22T02:21:55.261Z,1004.7
2016-03-22T02:22:54.450Z,1004.64
2016-03-22T02:23:54.453Z,1004.68
2016-03-22T02:24:54.550Z,1004.67
2016-03-22T02:25:54.443Z,1004.66
2016-03-22T02:26:54.430Z,1004.67
2016-03-22T02:27:54.417Z,1004.7
2016-03-22T02:28:54.419Z,1004.72
2016-03-22T02:29:54.407Z,1004.7
2016-03-22T02:30:54.399Z,1004.71
2016-03-22T02:31:54.401Z,1004.69
2016-03-22T02:32:54.388Z,1004.68
2016-03-22T02:33:54.376Z,1004.66
2016-03-22T02:34:54.378Z,1004.69
2016-03-22T02:35:54.382Z,1004.73
2016-03-22T02:36:54.368Z,1004.7
2016-03-22T02:37:54.354Z,1004.73
2016-03-22T02:38:54.357Z,1004.69
2016-03-22T02:39:54.345Z,1004.73
2016-03-22T02:40:54.331Z,1004.74
2016-03-22T02:41:54.335Z,1004.75
2016-03-22T02:42:54.322Z,1004.74
2016-03-22T02:43:54.324Z,1004.73
2016-03-22T02:44:54.312Z,1004.72
2016-03-22T02:45:54.314Z,1004.74
2016-03-22T02:46:54.300Z,1004.76
2016-03-22T02:47:54.303Z,1004.77
2016-03-22T02:48:54.291Z,1004.74
2016-03-22T02:49:54.278Z,1004.78
2016-03-22T02:50:54.281Z,1004.76
2016-03-22T02:51:54.267Z,1004.77
2016-03-22T02:52:54.255Z,1004.76
2016-03-22T02:53:54.258Z,1004.77
2016-03-22T02:54:54.244Z,1004.81
2016-03-22T02:55:54.232Z,1004.78
2016-03-22T02:56:54.235Z,1004.8
2016-03-22T02:57:54.222Z,1004.81
2016-03-22T02:58:54.208Z,1004.8
2016-03-22T02:59:54.211Z,1004.83
2016-03-22T03:00:54.198Z,1004.83
2016-03-22T03:01:54.201Z,1004.79
2016-03-22T03:02:54.188Z,1004.82
2016-03-22T03:03:54.190Z,1004.83
2016-03-22T03:04:54.177Z,1004.82
2016-03-22T03:05:54.165Z,1004.81
2016-03-22T03:06:54.168Z,1004.87
2016-03-22T03:07:54.170Z,1004.81
2016-03-22T03:08:54.157Z,1004.85
2016-03-22T03:09:54.145Z,1004.88
2016-03-22T03:10:54.147Z,1004.86
2016-03-22T03:11:55.634Z,1004.8
2016-03-22T03:12:54.887Z,1004.86
2016-03-22T03:13:54.123Z,1004.82
2016-03-22T03:14:54.204Z,1004.87
2016-03-22T03:15:54.207Z,1004.82
2016-03-22T03:16:54.100Z,1004.88
2016-03-22T03:17:54.542Z,1004.85
2016-03-22T03:18:54.090Z,1004.88
2016-03-22T03:19:54.077Z,1004.84
2016-03-22T03:20:54.081Z,1004.93
2016-03-22T03:21:54.645Z,1004.88
2016-03-22T03:22:54.069Z,1004.87
2016-03-22T03:23:54.057Z,1004.89
2016-03-22T03:24:54.044Z,1004.87
2016-03-22T03:25:54.030Z,1004.85
2016-03-22T03:26:54.034Z,1004.91
2016-03-22T03:27:54.224Z,1004.88
2016-03-22T03:28:54.023Z,1004.88
2016-03-22T03:30:54.013Z,1004.89
2016-03-22T03:31:54.000Z,1004.88
2016-03-22T03:32:53.987Z,1004.85
2016-03-22T03:33:53.990Z,1004.86
2016-03-22T03:34:53.977Z,1004.87
2016-03-22T03:35:53.980Z,1004.87
2016-03-22T03:36:53.967Z,1004.82
2016-03-22T03:37:53.954Z,1004.86
2016-03-22T03:38:53.957Z,1004.85
2016-03-22T03:39:53.944Z,1004.9
2016-03-22T03:40:53.931Z,1004.88
2016-03-22T03:41:53.933Z,1004.82
2016-03-22T03:42:53.921Z,1004.91
2016-03-22T03:43:53.923Z,1004.86
2016-03-22T03:44:53.910Z,1004.87
2016-03-22T03:45:53.912Z,1004.89
2016-03-22T03:46:53.900Z,1004.85
2016-03-22T03:47:53.903Z,1004.85
2016-03-22T03:48:53.890Z,1004.87
2016-03-22T03:49:53.877Z,1004.83
2016-03-22T03:50:53.879Z,1004.82
2016-03-22T03:51:53.867Z,1004.86
2016-03-22T03:52:53.869Z,1004.83
2016-03-22T03:53:53.856Z,1004.81
2016-03-22T03:54:53.844Z,1004.84
2016-03-22T03:55:53.830Z,1004.85
2016-03-22T03:56:53.833Z,1004.84
2016-03-22T03:57:53.820Z,1004.86
2016-03-22T03:58:53.822Z,1004.87
2016-03-22T03:59:53.810Z,1004.9
2016-03-22T04:00:53.797Z,1004.87
2016-03-22T04:01:53.799Z,1004.8
2016-03-22T04:02:53.787Z,1004.81
2016-03-22T04:03:53.790Z,1004.81
2016-03-22T04:04:53.776Z,1004.82
2016-03-22T04:05:53.779Z,1004.85
2016-03-22T04:06:53.766Z,1004.87
2016-03-22T04:07:53.754Z,1004.88
2016-03-22T04:08:53.756Z,1004.85
2016-03-22T04:09:53.743Z,1004.86
2016-03-22T04:10:53.745Z,1004.83
2016-03-22T04:11:53.732Z,1004.86
2016-03-22T04:12:53.735Z,1004.85
2016-03-22T04:13:53.723Z,1004.86
2016-03-22T04:14:53.709Z,1004.85
2016-03-22T04:15:53.712Z,1004.86
2016-03-22T04:16:53.700Z,1004.81
2016-03-22T04:17:53.686Z,1004.79
2016-03-22T04:18:53.689Z,1004.83
2016-03-22T04:19:53.676Z,1004.81
2016-03-22T04:20:53.663Z,1004.85
2016-03-22T04:21:53.667Z,1004.91
2016-03-22T04:22:53.653Z,1004.85
2016-03-22T04:23:53.639Z,1004.84
2016-03-22T04:24:53.643Z,1004.84
2016-03-22T04:25:53.645Z,1004.85
2016-03-22T04:26:53.633Z,1004.82
2016-03-22T04:27:53.619Z,1004.84
2016-03-22T04:28:53.622Z,1004.89
2016-03-22T04:29:53.610Z,1004.86
2016-03-22T04:31:54.740Z,1004.97
2016-03-22T04:32:53.585Z,1004.92
2016-03-22T04:33:54.152Z,1004.91
2016-03-22T04:34:54.091Z,1004.91
2016-03-22T04:35:53.579Z,1004.91
2016-03-22T04:36:53.565Z,1004.91
2016-03-22T04:37:53.552Z,1004.93
2016-03-22T04:38:53.555Z,1004.94
2016-03-22T04:39:53.543Z,1004.91
2016-03-22T04:40:54.343Z,1004.93
2016-03-22T04:41:53.532Z,1004.96
2016-03-22T04:42:53.519Z,1004.95
2016-03-22T04:43:53.507Z,1004.92
2016-03-22T04:44:53.509Z,1004.95
2016-03-22T04:45:53.495Z,1004.93
2016-03-22T04:46:53.484Z,1004.99
2016-03-22T04:47:53.486Z,1004.96
2016-03-22T04:48:53.473Z,1004.9
2016-03-22T04:49:53.476Z,1004.94
2016-03-22T04:50:53.462Z,1004.93
2016-03-22T04:51:53.450Z,1004.99
2016-03-22T04:52:53.453Z,1004.95
2016-03-22T04:53:53.439Z,1004.98
2016-03-22T04:54:53.427Z,1004.96
2016-03-22T04:55:53.429Z,1005.01
2016-03-22T04:56:53.433Z,1004.99
2016-03-22T04:57:53.419Z,1004.96
2016-03-22T04:58:53.406Z,1004.98
2016-03-22T04:59:53.408Z,1004.98
2016-03-22T05:00:54.349Z,1005.03
2016-03-22T05:01:54.086Z,1005.03
2016-03-22T05:02:53.385Z,1005
2016-03-22T05:03:54.076Z,1004.97
2016-03-22T05:04:53.359Z,1005
2016-03-22T05:05:53.363Z,1005.01
2016-03-22T05:06:53.349Z,1005.03
2016-03-22T05:07:53.337Z,1004.99
2016-03-22T05:08:53.340Z,1005.03
2016-03-22T05:09:53.342Z,1005.01
2016-03-22T05:10:53.329Z,1005
2016-03-22T05:11:53.316Z,1005.01
2016-03-22T05:12:53.318Z,1005.03
2016-03-22T05:13:53.306Z,1005.01
2016-03-22T05:14:53.293Z,1005.01
2016-03-22T05:15:53.295Z,1005.03
2016-03-22T05:16:53.283Z,1004.97
2016-03-22T05:17:53.270Z,1004.99
2016-03-22T05:18:53.273Z,1004.99
2016-03-22T05:19:53.259Z,1005.01
2016-03-22T05:20:53.247Z,1005.02
2016-03-22T05:21:53.250Z,1005.05
2016-03-22T05:22:53.236Z,1005.03
2016-03-22T05:23:53.255Z,1005.04
2016-03-22T05:24:53.241Z,1004.99
2016-03-22T05:25:53.213Z,1005
2016-03-22T05:26:53.216Z,1005.05
2016-03-22T05:27:53.203Z,1005.05
2016-03-22T05:28:53.190Z,1005.06
2016-03-22T05:29:53.192Z,1005.07
2016-03-22T05:30:53.180Z,1005.02
2016-03-22T05:31:53.166Z,1005.07
2016-03-22T05:32:53.169Z,1004.99
2016-03-22T05:33:53.157Z,1005.03
2016-03-22T05:34:53.143Z,1005.02
2016-03-22T05:35:53.147Z,1005
2016-03-22T05:36:53.149Z,1005.04
2016-03-22T05:37:53.114Z,1005.01
2016-03-22T05:38:53.118Z,1005.05
2016-03-22T05:39:53.137Z,1005.05
2016-03-22T05:40:53.085Z,1005.03
2016-03-22T05:41:53.088Z,1005.01
2016-03-22T05:42:53.075Z,1005.06
2016-03-22T05:43:53.062Z,1005.03
2016-03-22T05:44:53.064Z,1005.08
2016-03-22T05:45:53.067Z,1005.02
2016-03-22T05:46:53.055Z,1005.05
2016-03-22T05:47:53.041Z,1004.98
2016-03-22T05:48:53.029Z,1004.98
2016-03-22T05:49:53.032Z,1005.05
2016-03-22T05:50:53.018Z,1005.02
2016-03-22T05:51:53.006Z,1005.06
2016-03-22T05:52:53.008Z,1005.05
2016-03-22T05:53:53.011Z,1005.03
2016-03-22T05:54:52.982Z,1005.04
2016-03-22T05:55:52.985Z,1005
2016-03-22T05:56:52.972Z,1004.98
2016-03-22T05:57:52.974Z,1005.05
2016-03-22T05:58:53.619Z,1005.07
2016-03-22T06:00:52.952Z,1005.08
2016-03-22T06:01:52.954Z,1005.09
2016-03-22T06:02:53.973Z,1005.07
2016-03-22T06:03:52.945Z,1005.1
2016-03-22T06:04:52.931Z,1005.11
2016-03-22T06:05:52.918Z,1005.12
2016-03-22T06:06:52.921Z,1005.09
2016-03-22T06:07:52.908Z,1005.12
2016-03-22T06:10:52.885Z,1005.05
2016-03-22T06:11:53.278Z,1005.04
2016-03-22T06:12:53.233Z,1005.09
2016-03-22T06:13:52.878Z,1005.06
2016-03-22T06:14:52.864Z,1005.13
2016-03-22T06:15:52.867Z,1005.08
2016-03-22T06:16:52.854Z,1005.05
2016-03-22T06:17:54.044Z,1005.02
2016-03-22T06:18:52.843Z,1005.04
2016-03-22T06:19:52.846Z,1005.03
2016-03-22T06:20:52.881Z,1005.05
2016-03-22T06:21:52.836Z,1005.05
2016-03-22T06:22:52.824Z,1005.12
2016-03-22T06:23:52.826Z,1005.15
2016-03-22T06:24:52.813Z,1005.09
2016-03-22T06:25:52.800Z,1005.12
2016-03-22T06:26:52.802Z,1005.17
2016-03-22T06:27:52.805Z,1005.14
2016-03-22T06:28:52.792Z,1005.19
2016-03-22T06:29:52.780Z,1005.15
2016-03-22T06:30:52.782Z,1005.26
2016-03-22T06:31:52.770Z,1005.3
2016-03-22T06:32:52.773Z,1005.28
2016-03-22T06:33:52.775Z,1005.31
2016-03-22T06:34:52.762Z,1005.16
2016-03-22T06:35:52.764Z,1005.08
2016-03-22T06:36:52.768Z,1005.06
2016-03-22T06:37:52.754Z,1005.04
2016-03-22T06:38:52.757Z,1005.04
2016-03-22T06:39:52.759Z,1005.04
2016-03-22T06:40:52.762Z,1005.04
2016-03-22T06:41:52.750Z,1005.1
2016-03-22T06:42:52.752Z,1005.06
2016-03-22T06:43:52.756Z,1005.05
2016-03-22T06:44:52.758Z,1005.08
2016-03-22T06:45:52.745Z,1005.1
2016-03-22T06:46:52.747Z,1005.07
2016-03-22T06:47:52.750Z,1005.09
2016-03-22T06:48:52.736Z,1005.15
2016-03-22T06:49:52.739Z,1005.15
2016-03-22T06:50:52.741Z,1005.21
2016-03-22T06:51:52.744Z,1005.18
2016-03-22T06:52:52.732Z,1005.17
2016-03-22T06:53:52.735Z,1005.19
2016-03-22T06:54:52.738Z,1005.27
2016-03-22T06:55:52.724Z,1005.27
2016-03-22T06:56:52.727Z,1005.26
2016-03-22T06:57:52.729Z,1005.27
2016-03-22T06:58:52.733Z,1005.28
2016-03-22T06:59:52.720Z,1005.2
2016-03-22T07:00:52.723Z,1005.2
2016-03-22T07:01:52.709Z,1005.27
2016-03-22T07:02:52.712Z,1005.25
2016-03-22T07:03:52.715Z,1005.24
2016-03-22T07:04:52.717Z,1005.22
2016-03-22T07:05:52.705Z,1005.16
2016-03-22T07:06:52.707Z,1005.25
2016-03-22T07:07:52.700Z,1005.16
2016-03-22T07:08:52.702Z,1005.22
2016-03-22T07:09:52.705Z,1005.15
2016-03-22T07:10:52.692Z,1005.2
2016-03-22T07:11:52.694Z,1005.25
2016-03-22T07:12:52.698Z,1005.23
2016-03-22T07:13:52.684Z,1005.25
2016-03-22T07:14:52.687Z,1005.28
2016-03-22T07:15:52.674Z,1005.31
2016-03-22T07:16:52.677Z,1005.27
2016-03-22T07:18:52.682Z,1005.27
2016-03-22T07:19:54.278Z,1005.28
2016-03-22T07:20:52.671Z,1005.27
2016-03-22T07:21:52.674Z,1005.29
2016-03-22T07:22:52.661Z,1005.29
2016-03-22T07:23:52.663Z,1005.25
2016-03-22T07:24:52.651Z,1005.32
2016-03-22T07:25:52.654Z,1005.28
2016-03-22T07:26:52.640Z,1005.33
2016-03-22T07:27:53.659Z,1005.32
2016-03-22T07:28:53.099Z,1005.32
2016-03-22T07:29:52.649Z,1005.37
2016-03-22T07:30:52.636Z,1005.41
2016-03-22T07:31:52.639Z,1005.36
2016-03-22T07:32:52.626Z,1005.36
2016-03-22T07:33:52.628Z,1005.42
2016-03-22T07:34:52.631Z,1005.4
2016-03-22T07:35:52.618Z,1005.36
2016-03-22T07:37:52.608Z,1005.37
2016-03-22T07:38:53.267Z,1005.32
2016-03-22T07:39:52.911Z,1005.35
2016-03-22T07:40:52.600Z,1005.46
2016-03-22T07:41:52.650Z,1005.49
2016-03-22T07:42:52.699Z,1005.42
2016-03-22T07:43:52.609Z,1005.4
2016-03-22T07:44:52.595Z,1005.38
2016-03-22T07:45:52.583Z,1005.37
2016-03-22T07:46:52.586Z,1005.41
2016-03-22T07:47:52.588Z,1005.4
2016-03-22T07:48:52.575Z,1005.36
2016-03-22T07:49:52.577Z,1005.34
2016-03-22T07:50:52.566Z,1005.36
2016-03-22T07:51:52.568Z,1005.34
2016-03-22T07:52:52.570Z,1005.39
2016-03-22T07:53:52.557Z,1005.41
2016-03-22T07:54:52.560Z,1005.38
2016-03-22T07:55:52.562Z,1005.37
2016-03-22T07:56:52.549Z,1005.39
2016-03-22T07:57:52.552Z,1005.37
2016-03-22T07:58:52.540Z,1005.43
2016-03-22T07:59:52.542Z,1005.45
2016-03-22T08:00:52.545Z,1005.51
2016-03-22T08:01:52.532Z,1005.48
2016-03-22T08:02:52.534Z,1005.49
2016-03-22T08:03:52.521Z,1005.54
2016-03-22T08:04:52.524Z,1005.56
2016-03-22T08:05:52.526Z,1005.57
2016-03-22T08:06:52.515Z,1005.57
2016-03-22T08:07:52.517Z,1005.59
2016-03-22T08:08:52.520Z,1005.68
2016-03-22T08:09:52.522Z,1005.69
2016-03-22T08:10:52.540Z,1005.66
2016-03-22T08:11:52.512Z,1005.67
2016-03-22T08:12:52.499Z,1005.62
2016-03-22T08:13:52.502Z,1005.71
2016-03-22T08:14:52.489Z,1005.66
2016-03-22T08:15:52.491Z,1005.66
2016-03-22T08:16:52.494Z,1005.68
2016-03-22T08:17:52.481Z,1005.66
2016-03-22T08:18:52.484Z,1005.72
2016-03-22T08:19:52.486Z,1005.72
2016-03-22T08:20:52.489Z,1005.76
2016-03-22T08:21:52.476Z,1005.75
2016-03-22T08:22:52.480Z,1005.75
2016-03-22T08:23:52.466Z,1005.75
2016-03-22T08:24:52.469Z,1005.72
2016-03-22T08:25:52.455Z,1005.7
2016-03-22T08:26:52.458Z,1005.72
2016-03-22T08:27:54.352Z,1005.74
2016-03-22T08:28:54.058Z,1005.75
2016-03-22T08:29:52.452Z,1005.79
2016-03-22T08:30:52.454Z,1005.83
2016-03-22T08:31:52.456Z,1005.81
2016-03-22T08:32:52.443Z,1005.75
2016-03-22T08:33:52.446Z,1005.84
2016-03-22T08:34:52.448Z,1005.88
2016-03-22T08:35:52.436Z,1005.77
2016-03-22T08:36:53.969Z,1005.75
2016-03-22T08:37:52.442Z,1005.7
2016-03-22T08:38:53.178Z,1005.64
2016-03-22T08:39:53.134Z,1005.67
2016-03-22T08:40:52.434Z,1005.6
2016-03-22T08:41:52.436Z,1005.61
2016-03-22T08:42:52.423Z,1005.72
2016-03-22T08:43:52.426Z,1005.7
2016-03-22T08:44:52.429Z,1005.71
2016-03-22T08:45:52.431Z,1005.73
2016-03-22T08:47:53.172Z,1005.7
2016-03-22T08:48:52.424Z,1005.63
2016-03-22T08:49:52.927Z,1005.64
2016-03-22T08:50:52.883Z,1005.75
2016-03-22T08:51:52.432Z,1005.72
2016-03-22T08:52:52.419Z,1005.68
2016-03-22T08:53:52.405Z,1005.71
2016-03-22T08:54:52.409Z,1005.75
2016-03-22T08:55:52.411Z,1005.72
2016-03-22T08:56:52.398Z,1005.75
2016-03-22T08:57:52.402Z,1005.75
2016-03-22T08:58:52.404Z,1005.71
2016-03-22T08:59:52.407Z,1005.57
2016-03-22T09:00:52.394Z,1005.56
2016-03-22T09:01:52.397Z,1005.51
2016-03-22T09:02:52.399Z,1005.52
2016-03-22T09:03:52.401Z,1005.5
2016-03-22T09:04:52.389Z,1005.6
2016-03-22T09:05:52.392Z,1005.67
2016-03-22T09:06:52.392Z,1005.65
2016-03-22T09:07:52.378Z,1005.63
2016-03-22T09:08:52.381Z,1005.67
2016-03-22T09:09:52.384Z,1005.65
2016-03-22T09:10:52.386Z,1005.62
2016-03-22T09:11:52.373Z,1005.59
2016-03-22T09:12:52.376Z,1005.63
2016-03-22T09:13:52.364Z,1005.74
2016-03-22T09:14:52.366Z,1005.76
2016-03-22T09:15:52.369Z,1005.8
2016-03-22T09:16:52.355Z,1005.76
2016-03-22T09:17:52.358Z,1005.79
2016-03-22T09:18:52.360Z,1005.7
2016-03-22T09:19:52.349Z,1005.66
2016-03-22T09:20:52.366Z,1005.65
2016-03-22T09:21:52.353Z,1005.64
2016-03-22T09:22:52.356Z,1005.71
2016-03-22T09:23:52.359Z,1005.75
2016-03-22T09:24:52.346Z,1005.83
2016-03-22T09:25:52.348Z,1005.79
2016-03-22T09:26:52.352Z,1005.74
2016-03-22T09:27:52.338Z,1005.65
2016-03-22T09:28:52.340Z,1005.6
2016-03-22T09:29:52.343Z,1005.58
2016-03-22T09:30:52.346Z,1005.6
2016-03-22T09:31:52.334Z,1005.59
2016-03-22T09:32:52.336Z,1005.62
2016-03-22T09:33:52.339Z,1005.6
2016-03-22T09:34:52.342Z,1005.56
2016-03-22T09:35:52.328Z,1005.55
2016-03-22T09:36:52.332Z,1005.49
2016-03-22T09:37:52.334Z,1005.43
2016-03-22T09:38:52.320Z,1005.54
2016-03-22T09:39:52.323Z,1005.49
2016-03-22T09:40:52.326Z,1005.49
2016-03-22T09:41:52.314Z,1005.51
2016-03-22T09:42:52.316Z,1005.52
2016-03-22T09:43:52.319Z,1005.52
2016-03-22T09:44:52.321Z,1005.54
2016-03-22T09:45:52.309Z,1005.53
2016-03-22T09:46:53.217Z,1005.59
2016-03-22T09:47:52.814Z,1005.6
2016-03-22T09:48:52.316Z,1005.67
2016-03-22T09:49:52.647Z,1005.64
2016-03-22T09:50:52.760Z,1005.63
2016-03-22T09:51:52.309Z,1005.66
2016-03-22T09:52:52.296Z,1005.6
2016-03-22T09:53:52.299Z,1005.58
2016-03-22T09:54:52.301Z,1005.53
2016-03-22T09:55:52.899Z,1005.51
2016-03-22T09:56:54.354Z,1005.43
2016-03-22T09:57:52.294Z,1005.44
2016-03-22T09:58:52.296Z,1005.44
2016-03-22T09:59:52.299Z,1005.44
2016-03-22T10:00:52.318Z,1005.38
2016-03-22T10:01:52.617Z,1005.47
2016-03-22T10:02:52.276Z,1005.4
2016-03-22T10:03:52.279Z,1005.45
2016-03-22T10:05:52.285Z,1005.42
2016-03-22T10:06:52.287Z,1005.52
2016-03-22T10:07:52.367Z,1005.55
2016-03-22T10:08:52.277Z,1005.47
2016-03-22T10:09:52.279Z,1005.53
2016-03-22T10:10:52.267Z,1005.52
2016-03-22T10:11:52.269Z,1005.51
2016-03-22T10:12:52.272Z,1005.53
2016-03-22T10:13:52.259Z,1005.52
2016-03-22T10:14:52.918Z,1005.52
2016-03-22T10:16:52.267Z,1005.53
2016-03-22T10:17:52.254Z,1005.53
2016-03-22T10:18:52.850Z,1005.55
2016-03-22T10:19:52.244Z,1005.52
2016-03-22T10:20:52.246Z,1005.55
2016-03-22T10:21:52.249Z,1005.57
2016-03-22T10:22:52.252Z,1005.64
2016-03-22T10:23:52.238Z,1005.66
2016-03-22T10:24:52.241Z,1005.65
2016-03-22T10:25:52.338Z,1005.64
2016-03-22T10:26:52.232Z,1005.64
2016-03-22T10:27:52.234Z,1005.59
2016-03-22T10:28:52.221Z,1005.61
2016-03-22T10:29:52.224Z,1005.55
2016-03-22T10:30:52.226Z,1005.52
2016-03-22T10:31:52.213Z,1005.48
2016-03-22T10:32:52.216Z,1005.49
2016-03-22T10:33:52.218Z,1005.46
2016-03-22T10:34:52.221Z,1005.42
2016-03-22T10:35:52.224Z,1005.43
2016-03-22T10:36:52.212Z,1005.43
2016-03-22T10:37:52.214Z,1005.42
2016-03-22T10:38:52.201Z,1005.44
2016-03-22T10:39:52.204Z,1005.4
2016-03-22T10:40:52.206Z,1005.37
2016-03-22T10:41:52.193Z,1005.42
2016-03-22T10:42:52.196Z,1005.35
2016-03-22T10:43:52.199Z,1005.37
2016-03-22T10:44:52.186Z,1005.39
2016-03-22T10:45:52.189Z,1005.59
2016-03-22T10:46:52.191Z,1005.59
2016-03-22T10:47:52.178Z,1005.64
2016-03-22T10:48:52.181Z,1005.61
2016-03-22T10:49:52.184Z,1005.65
2016-03-22T10:50:52.186Z,1005.67
2016-03-22T10:51:52.173Z,1005.71
2016-03-22T10:52:52.176Z,1005.72
2016-03-22T10:53:52.179Z,1005.72
2016-03-22T10:54:52.166Z,1005.7
2016-03-22T10:55:52.169Z,1005.71
2016-03-22T10:56:52.171Z,1005.7
2016-03-22T10:57:52.158Z,1005.76
2016-03-22T10:58:52.160Z,1005.78
2016-03-22T10:59:52.164Z,1005.81
2016-03-22T11:00:52.166Z,1005.84
2016-03-22T11:01:52.153Z,1005.79
2016-03-22T11:02:52.157Z,1005.71
2016-03-22T11:03:52.157Z,1005.71
2016-03-22T11:05:52.150Z,1005.81
2016-03-22T11:06:52.130Z,1005.8
2016-03-22T11:07:53.081Z,1005.73
2016-03-22T11:08:52.125Z,1005.74
2016-03-22T11:09:52.125Z,1005.7
2016-03-22T11:10:52.111Z,1005.62
2016-03-22T11:11:52.111Z,1005.55
2016-03-22T11:12:52.112Z,1005.49
2016-03-22T11:13:52.112Z,1005.47
2016-03-22T11:14:52.099Z,1005.36
2016-03-22T11:15:52.960Z,1005.37
2016-03-22T11:16:52.102Z,1005.4
2016-03-22T11:17:52.104Z,1005.35
2016-03-22T11:18:52.341Z,1005.35
2016-03-22T11:19:52.108Z,1005.34
2016-03-22T11:20:52.094Z,1005.39
2016-03-22T11:21:52.097Z,1005.42
2016-03-22T11:22:52.240Z,1005.35
2016-03-22T11:23:52.102Z,1005.37
2016-03-22T11:24:52.496Z,1005.36
2016-03-22T11:25:52.092Z,1005.32
2016-03-22T11:27:52.098Z,1005.33
2016-03-22T11:28:52.100Z,1005.31
2016-03-22T11:29:52.087Z,1005.3
2016-03-22T11:30:52.089Z,1005.27
2016-03-22T11:31:52.093Z,1005.3
2016-03-22T11:32:52.095Z,1005.31
2016-03-22T11:34:52.084Z,1005.32
2016-03-22T11:35:52.791Z,1005.38
2016-03-22T11:36:52.528Z,1005.37
2016-03-22T11:37:52.078Z,1005.45
2016-03-22T11:38:52.377Z,1005.43
2016-03-22T11:39:52.441Z,1005.46
2016-03-22T11:40:52.070Z,1005.43
2016-03-22T11:41:52.072Z,1005.41
2016-03-22T11:42:52.075Z,1005.42
2016-03-22T11:43:52.078Z,1005.42
2016-03-22T11:44:52.080Z,1005.38
2016-03-22T11:45:52.068Z,1005.33
2016-03-22T11:46:52.071Z,1005.36
2016-03-22T11:47:52.057Z,1005.46
2016-03-22T11:48:52.060Z,1005.49
2016-03-22T11:49:52.062Z,1005.52
2016-03-22T11:50:52.066Z,1005.5
2016-03-22T11:51:52.068Z,1005.53
2016-03-22T11:52:52.055Z,1005.53
2016-03-22T11:53:52.057Z,1005.6
2016-03-22T11:54:52.060Z,1005.57
2016-03-22T11:55:52.048Z,1005.51
2016-03-22T11:56:52.051Z,1005.5
2016-03-22T11:57:52.053Z,1005.52
2016-03-22T11:58:52.056Z,1005.56
2016-03-22T11:59:52.043Z,1005.59
2016-03-22T12:00:52.045Z,1005.57
2016-03-22T12:01:52.048Z,1005.59
2016-03-22T12:02:52.051Z,1005.61
2016-03-22T12:03:52.037Z,1005.62
2016-03-22T12:04:52.040Z,1005.63
2016-03-22T12:05:52.043Z,1005.66
2016-03-22T12:06:52.045Z,1005.66
2016-03-22T12:07:52.048Z,1005.63
2016-03-22T12:08:52.050Z,1005.61
2016-03-22T12:09:52.054Z,1005.59
2016-03-22T12:10:52.041Z,1005.66
2016-03-22T12:11:52.044Z,1005.59
2016-03-22T12:12:52.031Z,1005.51
2016-03-22T12:13:52.033Z,1005.48
2016-03-22T12:14:52.036Z,1005.48
2016-03-22T12:15:52.039Z,1005.52
2016-03-22T12:16:52.041Z,1005.51
2016-03-22T12:17:52.044Z,1005.47
2016-03-22T12:18:52.046Z,1005.48
2016-03-22T12:19:52.050Z,1005.51
2016-03-22T12:20:52.037Z,1005.49
2016-03-22T12:21:52.040Z,1005.46
2016-03-22T12:22:52.043Z,1005.49